Time;durP1;ratioP1;P1;durP2;ratioP2;P2;SDS_P1;SDS_P2;PMS_P1;PMS_P2;Temp;Humidity;BMP_temperature;BMP_pressure;BME280_temperature;BME280_humidity;BME280_pressure;Samples;Min_cycle;Max_cycle;Signal;HPM_P1;HPM_P2
2023/08/24 00:01:39;;;;;;;3.30;2.50;;;;;;;;;;5005812;28;20279;-61
2023/08/24 00:04:07;;;;;;;2.55;2.33;;;;;;;;;;5012851;28;20208;-60
2023/08/24 00:06:34;;;;;;;2.88;2.30;;;;;;;;;;5025294;28;20212;-61
2023/08/24 00:09:04;;;;;;;2.92;2.20;;;;;;;;;;5026680;28;20650;-61
2023/08/24 00:11:31;;;;;;;4.38;2.28;;;;;;;;;;5024762;28;20300;-60
2023/08/24 00:13:58;;;;;;;2.55;2.13;;;;;;;;;;5024194;28;20702;-60
2023/08/24 00:16:25;;;;;;;2.55;2.38;;;;;;;;;;5021423;28;20213;-60
2023/08/24 00:18:52;;;;;;;3.25;2.72;;;;;;;;;;5025277;28;20221;-60
2023/08/24 00:21:22;;;;;;;2.92;2.72;;;;;;;;;;5024091;28;20205;-60
2023/08/24 00:23:49;;;;;;;3.83;2.22;;;;;;;;;;5021284;28;20214;-60
2023/08/24 00:26:17;;;;;;;3.00;2.75;;;;;;;;;;5004565;28;20216;-60
2023/08/24 00:28:45;;;;;;;2.95;2.72;;;;;;;;;;5001599;28;20245;-61
2023/08/24 00:31:12;;;;;;;2.72;2.53;;;;;;;;;;5001874;28;20337;-60
2023/08/24 00:33:39;;;;;;;4.45;2.17;;;;;;;;;;5001237;28;20263;-61
2023/08/24 00:36:07;;;;;;;2.92;2.72;;;;;;;;;;5013257;28;20266;-61
2023/08/24 00:38:36;;;;;;;2.75;2.55;;;;;;;;;;5024403;28;20215;-60
2023/08/24 00:41:03;;;;;;;2.65;2.45;;;;;;;;;;5025581;28;20286;-61
2023/08/24 00:43:30;;;;;;;2.75;2.55;;;;;;;;;;5024833;28;20586;-60
2023/08/24 00:45:58;;;;;;;2.85;2.35;;;;;;;;;;5024456;28;20678;-60
2023/08/24 00:48:28;;;;;;;2.25;2.10;;;;;;;;;;5024178;28;20208;-60
2023/08/24 00:50:55;;;;;;;2.92;2.17;;;;;;;;;;5026176;28;20295;-60
2023/08/24 00:53:23;;;;;;;4.40;2.22;;;;;;;;;;5026127;28;20244;-61
2023/08/24 00:55:51;;;;;;;2.20;2.10;;;;;;;;;;5006383;28;20718;-60
2023/08/24 00:58:19;;;;;;;2.28;2.03;;;;;;;;;;5015441;28;20221;-60
2023/08/24 01:00:46;;;;;;;3.00;2.20;;;;;;;;;;5009572;28;20282;-61
2023/08/24 01:03:13;;;;;;;3.22;2.15;;;;;;;;;;5022752;28;20215;-60
2023/08/24 01:05:40;;;;;;;4.40;2.00;;;;;;;;;;5000322;28;20209;-60
2023/08/24 01:08:07;;;;;;;6.45;2.40;;;;;;;;;;5014046;28;20211;-61
2023/08/24 01:10:39;;;;;;;2.38;2.28;;;;;;;;;;5020284;28;20266;-61
2023/08/24 01:13:09;;;;;;;2.85;2.40;;;;;;;;;;5020065;28;20757;-60
2023/08/24 01:15:39;;;;;;;2.53;2.10;;;;;;;;;;5005922;28;20274;-60
2023/08/24 01:18:07;;;;;;;2.10;2.00;;;;;;;;;;5005645;28;20228;-60
2023/08/24 01:20:36;;;;;;;2.60;2.40;;;;;;;;;;5004243;28;20232;-61
2023/08/24 01:23:08;;;;;;;3.40;2.05;;;;;;;;;;5009769;28;20275;-60
2023/08/24 01:25:39;;;;;;;2.90;2.30;;;;;;;;;;5004574;28;20209;-60
2023/08/24 01:28:08;;;;;;;2.33;2.22;;;;;;;;;;5021940;28;20212;-60
2023/08/24 01:30:36;;;;;;;2.55;2.35;;;;;;;;;;5023378;28;20211;-61
2023/08/24 01:33:04;;;;;;;4.38;2.35;;;;;;;;;;5024415;28;20330;-60
2023/08/24 01:35:31;;;;;;;2.38;2.28;;;;;;;;;;5023510;28;20262;-60
2023/08/24 01:38:02;;;;;;;2.30;2.10;;;;;;;;;;5005885;28;20209;-60
2023/08/24 01:40:33;;;;;;;2.35;2.20;;;;;;;;;;5003942;28;20213;-60
2023/08/24 01:43:03;;;;;;;2.70;2.50;;;;;;;;;;5010848;28;20204;-60
2023/08/24 01:45:33;;;;;;;2.53;2.40;;;;;;;;;;5023559;28;20212;-60
2023/08/24 01:48:02;;;;;;;2.35;2.15;;;;;;;;;;5005477;28;20213;-60
2023/08/24 01:50:29;;;;;;;3.33;2.10;;;;;;;;;;5000882;28;20205;-60
2023/08/24 01:52:57;;;;;;;2.67;2.40;;;;;;;;;;5001362;28;20233;-60
2023/08/24 01:55:24;;;;;;;5.07;2.42;;;;;;;;;;5001883;28;20213;-60
2023/08/24 01:57:51;;;;;;;2.42;2.38;;;;;;;;;;5013218;28;20245;-60
2023/08/24 02:00:18;;;;;;;2.20;2.10;;;;;;;;;;4999801;28;20235;-60
2023/08/24 02:02:46;;;;;;;2.10;2.00;;;;;;;;;;5004799;28;20975;-60
2023/08/24 02:05:14;;;;;;;3.03;2.30;;;;;;;;;;5023000;28;20212;-60
2023/08/24 02:07:41;;;;;;;4.93;2.50;;;;;;;;;;5006253;28;20211;-60
2023/08/24 02:10:08;;;;;;;3.38;2.15;;;;;;;;;;5004774;28;20208;-60
2023/08/24 02:12:35;;;;;;;3.78;2.50;;;;;;;;;;5002865;28;20205;-60
2023/08/24 02:15:02;;;;;;;4.20;2.42;;;;;;;;;;5004638;28;20212;-60
2023/08/24 02:17:29;;;;;;;4.10;2.40;;;;;;;;;;5003214;28;20275;-60
2023/08/24 02:19:58;;;;;;;2.90;2.20;;;;;;;;;;5017177;28;20231;-60
2023/08/24 02:22:25;;;;;;;2.78;2.58;;;;;;;;;;5024062;28;20204;-60
2023/08/24 02:24:52;;;;;;;2.50;2.30;;;;;;;;;;5020845;28;20219;-60
2023/08/24 02:27:19;;;;;;;3.30;3.00;;;;;;;;;;5023675;28;20242;-60
2023/08/24 02:29:46;;;;;;;3.13;2.67;;;;;;;;;;5001193;28;20216;-60
2023/08/24 02:32:13;;;;;;;3.33;2.88;;;;;;;;;;5001016;28;20223;-60
2023/08/24 02:34:40;;;;;;;3.05;2.83;;;;;;;;;;5009011;28;20262;-61
2023/08/24 02:37:09;;;;;;;3.55;2.70;;;;;;;;;;4999638;28;20278;-60
2023/08/24 02:39:36;;;;;;;2.78;2.58;;;;;;;;;;4999181;28;20213;-60
2023/08/24 02:42:03;;;;;;;3.08;2.88;;;;;;;;;;5023625;28;20218;-60
2023/08/24 02:44:31;;;;;;;4.63;3.20;;;;;;;;;;5021491;28;20372;-60
2023/08/24 02:46:58;;;;;;;3.03;2.85;;;;;;;;;;5004334;28;20209;-61
2023/08/24 02:49:25;;;;;;;3.30;3.10;;;;;;;;;;5002713;28;20216;-60
2023/08/24 02:51:52;;;;;;;6.25;2.70;;;;;;;;;;5003966;28;20216;-61
2023/08/24 02:54:21;;;;;;;3.28;2.92;;;;;;;;;;5003984;28;20233;-60
2023/08/24 02:56:48;;;;;;;4.28;2.58;;;;;;;;;;5022240;28;20220;-60
2023/08/24 02:59:15;;;;;;;2.95;2.75;;;;;;;;;;5007256;28;20775;-60
2023/08/24 03:01:42;;;;;;;6.93;2.60;;;;;;;;;;5002306;28;20241;-60
2023/08/24 03:04:09;;;;;;;3.80;2.67;;;;;;;;;;5015281;28;20212;-60
2023/08/24 03:06:36;;;;;;;3.40;3.20;;;;;;;;;;5007430;28;20212;-60
2023/08/24 03:09:04;;;;;;;4.28;3.95;;;;;;;;;;5004333;28;20217;-60
2023/08/24 03:11:32;;;;;;;4.32;4.03;;;;;;;;;;5002039;28;20216;-60
2023/08/24 03:13:59;;;;;;;5.15;4.75;;;;;;;;;;5002064;28;20236;-60
2023/08/24 03:16:27;;;;;;;5.30;4.88;;;;;;;;;;5001443;28;20201;-60
2023/08/24 03:18:54;;;;;;;5.45;5.00;;;;;;;;;;5000648;28;20201;-60
2023/08/24 03:21:22;;;;;;;6.25;5.47;;;;;;;;;;5013632;28;20208;-60
2023/08/24 03:23:49;;;;;;;5.28;4.80;;;;;;;;;;5008342;28;20305;-60
2023/08/24 03:26:16;;;;;;;6.65;5.88;;;;;;;;;;4998571;28;20209;-60
2023/08/24 03:28:45;;;;;;;6.00;5.60;;;;;;;;;;5004248;28;20221;-60
2023/08/24 03:31:12;;;;;;;6.03;5.53;;;;;;;;;;5003529;28;20220;-61
2023/08/24 03:33:39;;;;;;;5.90;5.50;;;;;;;;;;5003619;28;20233;-60
2023/08/24 03:36:06;;;;;;;6.05;5.65;;;;;;;;;;5020634;28;20235;-60
2023/08/24 03:38:33;;;;;;;6.35;5.85;;;;;;;;;;5025970;28;20212;-60
2023/08/24 03:41:03;;;;;;;5.70;5.18;;;;;;;;;;5027256;28;20215;-60
2023/08/24 03:43:33;;;;;;;6.00;5.50;;;;;;;;;;5024805;28;20218;-60
2023/08/24 03:46:01;;;;;;;6.18;5.65;;;;;;;;;;5012377;28;20228;-60
2023/08/24 03:48:28;;;;;;;6.70;5.53;;;;;;;;;;5005724;28;20683;-60
2023/08/24 03:50:55;;;;;;;5.80;5.40;;;;;;;;;;5024021;28;20216;-60
2023/08/24 03:53:23;;;;;;;6.38;5.72;;;;;;;;;;5021475;28;20251;-60
2023/08/24 03:55:50;;;;;;;5.93;5.32;;;;;;;;;;5009802;28;20205;-60
2023/08/24 03:58:17;;;;;;;8.05;5.82;;;;;;;;;;5007287;28;20208;-60
2023/08/24 04:00:44;;;;;;;5.70;5.30;;;;;;;;;;5006856;28;20674;-60
2023/08/24 04:03:12;;;;;;;5.68;5.28;;;;;;;;;;5010334;28;20204;-60
2023/08/24 04:05:39;;;;;;;5.82;5.53;;;;;;;;;;5020080;28;20204;-60
2023/08/24 04:08:07;;;;;;;7.88;5.47;;;;;;;;;;5021708;28;20215;-60
2023/08/24 04:10:34;;;;;;;8.20;5.15;;;;;;;;;;5019477;28;20666;-60
2023/08/24 04:13:01;;;;;;;6.10;5.57;;;;;;;;;;5027434;28;20208;-60
2023/08/24 04:15:28;;;;;;;5.72;5.10;;;;;;;;;;5019201;28;20319;-60
2023/08/24 04:17:56;;;;;;;5.97;5.32;;;;;;;;;;5022651;28;20228;-60
2023/08/24 04:20:25;;;;;;;5.32;4.93;;;;;;;;;;5026695;28;20208;-59
2023/08/24 04:22:52;;;;;;;5.10;4.70;;;;;;;;;;5008103;28;20217;-60
2023/08/24 04:25:19;;;;;;;5.50;5.00;;;;;;;;;;5003002;28;20237;-60
2023/08/24 04:27:46;;;;;;;5.60;5.28;;;;;;;;;;5001129;28;20242;-60
2023/08/24 04:30:14;;;;;;;5.40;4.95;;;;;;;;;;5001346;28;20683;-60
2023/08/24 04:32:41;;;;;;;4.95;4.57;;;;;;;;;;5007118;28;20288;-60
2023/08/24 04:35:10;;;;;;;5.07;4.68;;;;;;;;;;5019804;28;20634;-60
2023/08/24 04:37:38;;;;;;;4.75;4.45;;;;;;;;;;5017924;28;20569;-60
2023/08/24 04:40:07;;;;;;;5.95;4.70;;;;;;;;;;5002655;28;20208;-59
2023/08/24 04:42:34;;;;;;;5.28;4.78;;;;;;;;;;5004571;28;20216;-62
2023/08/24 04:45:01;;;;;;;5.05;4.03;;;;;;;;;;5017513;28;20252;-63
2023/08/24 04:47:28;;;;;;;4.95;4.55;;;;;;;;;;5013367;28;20416;-63
2023/08/24 04:49:56;;;;;;;4.82;4.40;;;;;;;;;;4999947;28;20232;-63
2023/08/24 04:52:23;;;;;;;9.52;4.30;;;;;;;;;;5002914;28;20221;-63
2023/08/24 04:54:51;;;;;;;4.20;3.80;;;;;;;;;;5024931;28;20205;-63
2023/08/24 04:57:19;;;;;;;4.47;4.22;;;;;;;;;;5024740;28;20219;-63
2023/08/24 04:59:46;;;;;;;4.30;3.90;;;;;;;;;;5005942;28;20209;-63
2023/08/24 05:02:13;;;;;;;4.30;3.90;;;;;;;;;;5000632;28;20240;-63
2023/08/24 05:04:41;;;;;;;4.22;4.00;;;;;;;;;;5002011;28;20236;-63
2023/08/24 05:07:08;;;;;;;4.47;4.00;;;;;;;;;;5005730;28;20224;-64
2023/08/24 05:09:35;;;;;;;4.00;3.75;;;;;;;;;;5003235;28;20209;-62
2023/08/24 05:12:03;;;;;;;3.63;3.42;;;;;;;;;;5018985;28;20212;-62
2023/08/24 05:14:30;;;;;;;3.90;3.50;;;;;;;;;;5013746;28;20221;-63
2023/08/24 05:16:57;;;;;;;3.72;3.22;;;;;;;;;;5006412;28;20233;-62
2023/08/24 05:19:24;;;;;;;3.50;3.30;;;;;;;;;;5005255;28;20209;-63
2023/08/24 05:21:51;;;;;;;2.95;2.85;;;;;;;;;;5001596;28;20205;-63
2023/08/24 05:24:18;;;;;;;2.97;2.67;;;;;;;;;;5000386;28;20245;-63
2023/08/24 05:26:45;;;;;;;6.63;2.83;;;;;;;;;;5008449;28;20215;-63
2023/08/24 05:29:14;;;;;;;4.30;2.80;;;;;;;;;;5010764;28;20666;-63
2023/08/24 05:31:41;;;;;;;3.80;2.60;;;;;;;;;;5020997;28;20213;-63
2023/08/24 05:34:08;;;;;;;2.40;2.30;;;;;;;;;;5005415;28;20205;-63
2023/08/24 05:36:35;;;;;;;3.50;2.45;;;;;;;;;;5003654;28;20227;-63
2023/08/24 05:39:03;;;;;;;4.65;2.83;;;;;;;;;;5010483;28;20209;-63
2023/08/24 05:41:30;;;;;;;2.60;2.50;;;;;;;;;;4999658;28;20225;-63
2023/08/24 05:43:57;;;;;;;2.97;2.83;;;;;;;;;;5000954;28;20216;-63
2023/08/24 05:46:25;;;;;;;2.83;2.63;;;;;;;;;;5006114;28;20303;-64
2023/08/24 05:48:52;;;;;;;4.40;2.60;;;;;;;;;;5015664;28;20403;-63
2023/08/24 05:51:19;;;;;;;5.22;2.92;;;;;;;;;;5013268;28;20227;-63
2023/08/24 05:53:46;;;;;;;3.85;2.75;;;;;;;;;;5021605;28;20215;-63
2023/08/24 05:56:13;;;;;;;3.88;2.88;;;;;;;;;;5024555;28;20562;-63
2023/08/24 05:58:40;;;;;;;9.07;2.63;;;;;;;;;;5011358;28;20258;-64
2023/08/24 06:01:07;;;;;;;3.25;3.00;;;;;;;;;;5020682;28;20244;-63
2023/08/24 06:03:36;;;;;;;7.45;2.90;;;;;;;;;;5001498;28;20216;-63
2023/08/24 06:06:04;;;;;;;3.30;3.10;;;;;;;;;;5003037;28;20248;-64
2023/08/24 06:08:31;;;;;;;5.32;2.85;;;;;;;;;;5003260;28;21029;-63
2023/08/24 06:10:58;;;;;;;3.30;2.80;;;;;;;;;;5004381;28;20255;-64
2023/08/24 06:13:26;;;;;;;2.70;2.58;;;;;;;;;;5004290;28;20450;-64
2023/08/24 06:15:54;;;;;;;4.97;2.63;;;;;;;;;;5000868;28;20213;-64
2023/08/24 06:18:21;;;;;;;3.70;2.70;;;;;;;;;;5018185;28;20315;-63
2023/08/24 06:20:49;;;;;;;5.60;2.58;;;;;;;;;;5022605;28;20568;-63
2023/08/24 06:23:17;;;;;;;2.90;2.28;;;;;;;;;;5024391;28;20236;-64
2023/08/24 06:25:45;;;;;;;4.95;2.50;;;;;;;;;;5013538;28;20232;-63
2023/08/24 06:28:12;;;;;;;2.90;2.70;;;;;;;;;;5004214;28;20641;-63
2023/08/24 06:30:39;;;;;;;6.93;2.40;;;;;;;;;;5002780;28;20217;-63
2023/08/24 06:33:06;;;;;;;3.25;2.47;;;;;;;;;;5004428;28;20563;-64
2023/08/24 06:35:34;;;;;;;2.58;2.40;;;;;;;;;;5002406;28;20650;-64
2023/08/24 06:38:02;;;;;;;3.38;2.67;;;;;;;;;;4998946;28;20205;-64
2023/08/24 06:40:29;;;;;;;9.48;3.22;;;;;;;;;;4998759;28;20218;-64
2023/08/24 06:42:56;;;;;;;2.88;2.63;;;;;;;;;;4999154;28;20714;-63
2023/08/24 06:45:23;;;;;;;2.95;2.50;;;;;;;;;;5001404;28;20723;-64
2023/08/24 06:47:51;;;;;;;3.10;2.50;;;;;;;;;;5001141;28;20212;-64
2023/08/24 06:50:19;;;;;;;3.10;2.55;;;;;;;;;;4998623;28;20327;-63
2023/08/24 06:52:47;;;;;;;2.70;2.60;;;;;;;;;;5003617;28;20641;-64
2023/08/24 06:55:15;;;;;;;2.90;2.70;;;;;;;;;;5002634;28;20228;-63
2023/08/24 06:57:42;;;;;;;2.85;2.65;;;;;;;;;;5005064;28;20672;-63
2023/08/24 07:00:12;;;;;;;2.83;2.72;;;;;;;;;;5003696;28;20217;-63
2023/08/24 07:02:39;;;;;;;5.70;2.90;;;;;;;;;;5017795;28;20239;-63
2023/08/24 07:05:08;;;;;;;2.42;2.33;;;;;;;;;;5023619;28;20224;-66
2023/08/24 07:07:35;;;;;;;3.95;2.60;;;;;;;;;;5013433;28;20244;-61
2023/08/24 07:10:03;;;;;;;2.70;2.60;;;;;;;;;;5014320;28;20208;-66
2023/08/24 07:12:31;;;;;;;2.65;2.47;;;;;;;;;;5014479;28;20464;-69
2023/08/24 07:14:58;;;;;;;5.30;2.50;;;;;;;;;;5001189;28;20233;-69
2023/08/24 07:17:25;;;;;;;3.20;2.80;;;;;;;;;;5001393;28;20247;-69
2023/08/24 07:19:52;;;;;;;2.88;2.67;;;;;;;;;;5000554;28;20216;-67
2023/08/24 07:22:20;;;;;;;3.40;2.60;;;;;;;;;;5013916;28;20213;-67
2023/08/24 07:24:52;;;;;;;3.50;2.38;;;;;;;;;;5023112;28;20319;-58
2023/08/24 07:27:19;;;;;;;6.53;2.58;;;;;;;;;;5020346;28;20215;-58
2023/08/24 07:29:47;;;;;;;2.63;2.42;;;;;;;;;;5003397;28;20259;-64
2023/08/24 07:32:14;;;;;;;4.60;2.35;;;;;;;;;;5013466;28;20701;-64
2023/08/24 07:34:41;;;;;;;3.20;2.45;;;;;;;;;;5008907;28;20212;-64
2023/08/24 07:37:08;;;;;;;10.20;2.58;;;;;;;;;;5003053;28;20216;-60
2023/08/24 07:39:35;;;;;;;3.00;2.15;;;;;;;;;;5003237;28;20211;-60
2023/08/24 07:42:02;;;;;;;9.25;2.25;;;;;;;;;;5017065;28;20270;-59
2023/08/24 07:44:30;;;;;;;6.70;2.40;;;;;;;;;;5017025;28;20673;-58
2023/08/24 07:46:58;;;;;;;2.95;2.53;;;;;;;;;;5018045;28;20580;-58
2023/08/24 07:49:25;;;;;;;2.67;2.35;;;;;;;;;;5011491;28;20212;-59
2023/08/24 07:51:52;;;;;;;2.65;2.20;;;;;;;;;;5013588;28;20204;-59
2023/08/24 07:54:20;;;;;;;3.25;2.45;;;;;;;;;;5009102;28;20210;-58
2023/08/24 07:56:47;;;;;;;2.60;2.50;;;;;;;;;;5003090;28;20223;-59
2023/08/24 07:59:14;;;;;;;7.25;2.65;;;;;;;;;;5003820;28;20228;-57
2023/08/24 08:01:41;;;;;;;2.55;2.45;;;;;;;;;;5000691;28;20703;-59
2023/08/24 08:04:09;;;;;;;3.22;2.70;;;;;;;;;;5002987;28;20221;-59
2023/08/24 08:06:36;;;;;;;3.10;2.85;;;;;;;;;;5000586;28;20650;-59
2023/08/24 08:09:03;;;;;;;5.25;2.30;;;;;;;;;;5002797;28;20220;-59
2023/08/24 08:11:31;;;;;;;3.08;2.30;;;;;;;;;;5000898;28;20401;-60
2023/08/24 08:13:58;;;;;;;5.25;2.70;;;;;;;;;;5002218;28;20219;-59
2023/08/24 08:16:25;;;;;;;5.60;2.63;;;;;;;;;;5002207;28;20866;-59
2023/08/24 08:18:52;;;;;;;6.82;2.80;;;;;;;;;;4995506;28;20235;-59
2023/08/24 08:21:22;;;;;;;4.53;2.90;;;;;;;;;;4999776;28;20228;-59
2023/08/24 08:23:50;;;;;;;6.00;2.78;;;;;;;;;;5001259;28;20596;-61
2023/08/24 08:26:17;;;;;;;3.15;2.65;;;;;;;;;;5000620;28;20572;-59
2023/08/24 08:28:44;;;;;;;2.95;2.33;;;;;;;;;;5002309;28;20439;-60
2023/08/24 08:31:11;;;;;;;4.20;2.78;;;;;;;;;;5004107;28;20209;-62
2023/08/24 08:33:38;;;;;;;4.97;2.70;;;;;;;;;;5006064;28;20213;-59
2023/08/24 08:36:05;;;;;;;2.70;2.53;;;;;;;;;;5005961;28;20205;-59
2023/08/24 08:38:34;;;;;;;10.13;2.63;;;;;;;;;;5003949;28;20475;-60
2023/08/24 08:41:03;;;;;;;2.60;2.40;;;;;;;;;;5005673;28;20345;-60
2023/08/24 08:43:31;;;;;;;2.25;2.25;;;;;;;;;;5003649;28;20209;-59
2023/08/24 08:45:59;;;;;;;4.13;2.47;;;;;;;;;;5005588;28;20609;-60
2023/08/24 08:48:26;;;;;;;2.45;2.28;;;;;;;;;;5005532;28;20702;-59
2023/08/24 08:50:55;;;;;;;2.28;2.00;;;;;;;;;;5005695;28;20205;-59
2023/08/24 08:53:23;;;;;;;5.45;2.60;;;;;;;;;;5005223;28;20442;-60
2023/08/24 08:55:52;;;;;;;2.65;2.55;;;;;;;;;;5003568;28;20209;-60
2023/08/24 08:58:19;;;;;;;2.22;2.13;;;;;;;;;;5003864;28;20884;-60
2023/08/24 09:00:47;;;;;;;2.47;2.13;;;;;;;;;;4997940;28;20207;-60
2023/08/24 09:03:15;;;;;;;2.47;2.38;;;;;;;;;;4998062;28;20213;-60
2023/08/24 09:05:42;;;;;;;2.50;2.30;;;;;;;;;;4999174;28;20252;-60
2023/08/24 09:08:10;;;;;;;2.60;2.50;;;;;;;;;;5001140;28;20213;-60
2023/08/24 09:10:37;;;;;;;2.25;2.15;;;;;;;;;;5002885;28;20459;-60
2023/08/24 09:13:06;;;;;;;2.47;2.25;;;;;;;;;;5004786;28;20698;-60
2023/08/24 09:15:36;;;;;;;2.42;2.30;;;;;;;;;;5001379;28;20276;-60
2023/08/24 09:18:03;;;;;;;2.58;2.40;;;;;;;;;;4999931;28;20254;-60
2023/08/24 09:20:30;;;;;;;2.53;2.40;;;;;;;;;;4999476;28;20204;-60
2023/08/24 09:22:57;;;;;;;2.35;2.25;;;;;;;;;;5012665;28;20670;-60
2023/08/24 09:25:25;;;;;;;2.47;2.30;;;;;;;;;;5010322;28;20405;-60
2023/08/24 09:27:57;;;;;;;3.17;2.00;;;;;;;;;;5023192;28;20213;-62
2023/08/24 09:30:30;;;;;;;3.30;2.38;;;;;;;;;;5022818;28;20211;-59
2023/08/24 09:32:57;;;;;;;2.22;2.20;;;;;;;;;;5005333;28;20295;-63
2023/08/24 09:35:24;;;;;;;3.17;2.03;;;;;;;;;;5005307;28;20318;-61
2023/08/24 09:37:51;;;;;;;2.20;2.05;;;;;;;;;;5010118;28;20783;-62
2023/08/24 09:40:25;;;;;;;2.22;2.13;;;;;;;;;;5004399;28;20232;-61
2023/08/24 09:42:52;;;;;;;2.45;2.22;;;;;;;;;;5012458;28;20208;-61
2023/08/24 09:45:19;;;;;;;3.53;2.38;;;;;;;;;;5024230;28;20236;-66
2023/08/24 09:47:51;;;;;;;2.30;2.08;;;;;;;;;;5022282;28;20694;-59
2023/08/24 09:50:18;;;;;;;2.47;2.38;;;;;;;;;;5022334;28;20449;-62
2023/08/24 09:52:46;;;;;;;2.40;2.17;;;;;;;;;;5019063;28;20231;-62
2023/08/24 09:55:13;;;;;;;2.42;2.13;;;;;;;;;;5014616;28;20936;-62
2023/08/24 09:57:41;;;;;;;2.60;2.40;;;;;;;;;;5014880;28;20213;-71
2023/08/24 10:00:11;;;;;;;2.08;1.98;;;;;;;;;;4998773;28;20307;-72
2023/08/24 10:02:38;;;;;;;2.75;2.20;;;;;;;;;;4998953;28;20287;-73
2023/08/24 10:05:08;;;;;;;2.72;2.30;;;;;;;;;;5003288;28;20209;-68
2023/08/24 10:07:37;;;;;;;2.72;2.53;;;;;;;;;;5002788;28;20233;-66
2023/08/24 10:10:05;;;;;;;2.38;2.28;;;;;;;;;;5003840;28;20315;-65
2023/08/24 10:12:34;;;;;;;3.28;2.63;;;;;;;;;;5002471;28;20212;-66
2023/08/24 10:15:02;;;;;;;4.43;2.38;;;;;;;;;;5005430;28;20209;-72
2023/08/24 10:17:30;;;;;;;3.13;2.20;;;;;;;;;;5003523;28;20308;-61
2023/08/24 10:19:58;;;;;;;11.00;4.53;;;;;;;;;;5003748;28;20725;-60
2023/08/24 10:22:26;;;;;;;6.20;3.45;;;;;;;;;;5019535;28;20445;-64
2023/08/24 10:24:55;;;;;;;3.53;2.88;;;;;;;;;;5022801;28;20219;-64
2023/08/24 10:27:24;;;;;;;6.63;4.25;;;;;;;;;;5021757;28;20601;-61
2023/08/24 10:29:51;;;;;;;2.40;2.30;;;;;;;;;;5002147;28;20587;-61
2023/08/24 10:32:18;;;;;;;2.47;2.40;;;;;;;;;;5004155;28;20212;-71
2023/08/24 10:34:46;;;;;;;3.50;2.65;;;;;;;;;;5001847;28;20224;-66
2023/08/24 10:37:13;;;;;;;3.28;2.33;;;;;;;;;;5002279;28;20418;-68
2023/08/24 10:39:46;;;;;;;3.15;3.05;;;;;;;;;;4998443;28;20212;-70
2023/08/24 10:42:14;;;;;;;3.13;2.95;;;;;;;;;;4998034;28;20535;-70
2023/08/24 10:44:42;;;;;;;2.53;2.38;;;;;;;;;;4997537;28;20216;-70
2023/08/24 10:47:09;;;;;;;2.95;2.70;;;;;;;;;;5004810;28;20228;-71
2023/08/24 10:49:36;;;;;;;3.15;2.70;;;;;;;;;;5020002;28;20221;-70
2023/08/24 10:52:20;;;;;;;2.53;2.35;;;;;;;;;;5023106;28;20220;-71
2023/08/24 10:54:49;;;;;;;3.63;2.78;;;;;;;;;;5021350;28;20201;-70
2023/08/24 10:57:20;;;;;;;2.60;2.50;;;;;;;;;;5021003;28;20616;-71
2023/08/24 11:00:01;;;;;;;2.88;2.40;;;;;;;;;;5003600;28;20544;-70
2023/08/24 11:02:29;;;;;;;2.47;2.40;;;;;;;;;;5001210;28;20263;-70
2023/08/24 11:05:06;;;;;;;2.70;2.50;;;;;;;;;;5003040;28;20205;-71
2023/08/24 11:07:33;;;;;;;2.80;2.60;;;;;;;;;;5001201;28;20244;-69
2023/08/24 11:10:12;;;;;;;2.85;2.65;;;;;;;;;;4999490;28;20759;-70
2023/08/24 11:12:58;;;;;;;2.83;2.70;;;;;;;;;;4998176;28;20303;-70
2023/08/24 11:15:31;;;;;;;2.55;2.45;;;;;;;;;;4999762;28;20702;-69
2023/08/24 11:18:12;;;;;;;2.95;2.72;;;;;;;;;;4997800;28;20241;-70
2023/08/24 11:20:40;;;;;;;2.40;2.35;;;;;;;;;;4998127;28;20215;-70
2023/08/24 11:23:07;;;;;;;2.50;2.45;;;;;;;;;;4999449;28;20208;-69
2023/08/24 11:25:36;;;;;;;2.78;2.67;;;;;;;;;;5002426;28;20205;-70
2023/08/24 11:28:04;;;;;;;3.03;2.80;;;;;;;;;;5002163;28;20232;-70
2023/08/24 11:30:32;;;;;;;4.30;3.05;;;;;;;;;;5000918;28;20205;-70
2023/08/24 11:32:59;;;;;;;2.70;2.60;;;;;;;;;;5002712;28;20311;-70
2023/08/24 11:35:26;;;;;;;2.78;2.67;;;;;;;;;;5001458;28;20213;-70
2023/08/24 11:37:53;;;;;;;2.80;2.70;;;;;;;;;;5002868;28;20300;-70
2023/08/24 11:40:26;;;;;;;2.58;2.47;;;;;;;;;;5002471;28;20212;-70
2023/08/24 11:42:56;;;;;;;2.80;2.60;;;;;;;;;;5002281;28;20232;-70
2023/08/24 11:45:23;;;;;;;3.03;2.72;;;;;;;;;;5002449;28;20225;-70
2023/08/24 11:47:50;;;;;;;3.00;2.70;;;;;;;;;;5001206;28;20632;-70
2023/08/24 11:50:17;;;;;;;2.75;2.63;;;;;;;;;;5002609;28;20216;-70
2023/08/24 11:52:45;;;;;;;2.88;2.78;;;;;;;;;;5000713;28;20208;-71
2023/08/24 11:55:13;;;;;;;3.00;2.78;;;;;;;;;;5002590;28;20209;-70
2023/08/24 11:57:40;;;;;;;2.90;2.60;;;;;;;;;;5002995;28;20209;-70
2023/08/24 12:00:13;;;;;;;3.38;2.75;;;;;;;;;;5001394;28;20691;-70
2023/08/24 12:02:40;;;;;;;3.13;2.97;;;;;;;;;;5001358;28;20240;-71
2023/08/24 12:05:08;;;;;;;3.03;2.80;;;;;;;;;;5001513;28;20209;-70
2023/08/24 12:07:35;;;;;;;2.75;2.60;;;;;;;;;;5001155;28;20229;-71
2023/08/24 12:10:02;;;;;;;3.35;2.90;;;;;;;;;;5006050;28;20727;-70
2023/08/24 12:12:29;;;;;;;2.97;2.88;;;;;;;;;;5004251;28;20216;-70
2023/08/24 12:14:57;;;;;;;2.63;2.53;;;;;;;;;;5006025;28;20216;-70
2023/08/24 12:17:25;;;;;;;3.08;2.75;;;;;;;;;;5004593;28;20323;-71
2023/08/24 12:20:00;;;;;;;2.65;2.55;;;;;;;;;;5006476;28;20584;-70
2023/08/24 12:22:28;;;;;;;4.25;2.50;;;;;;;;;;5004163;28;20212;-70
2023/08/24 12:24:55;;;;;;;3.35;2.60;;;;;;;;;;5006005;28;20205;-70
2023/08/24 12:27:22;;;;;;;3.45;2.72;;;;;;;;;;5005973;28;20236;-70
2023/08/24 12:29:49;;;;;;;3.03;2.80;;;;;;;;;;5004013;28;20580;-71
2023/08/24 12:32:19;;;;;;;2.72;2.58;;;;;;;;;;5005918;28;20231;-70
2023/08/24 12:34:48;;;;;;;3.28;2.22;;;;;;;;;;5004153;28;20204;-70
2023/08/24 12:37:15;;;;;;;3.95;2.58;;;;;;;;;;5005800;28;20208;-70
2023/08/24 12:39:42;;;;;;;2.53;2.38;;;;;;;;;;5004420;28;20213;-69
2023/08/24 12:42:09;;;;;;;2.75;2.55;;;;;;;;;;5005462;28;20216;-71
2023/08/24 12:44:36;;;;;;;2.78;2.58;;;;;;;;;;5003620;28;20209;-70
2023/08/24 12:47:04;;;;;;;2.78;2.67;;;;;;;;;;5001770;28;20299;-70
2023/08/24 12:49:31;;;;;;;3.10;2.50;;;;;;;;;;5000608;28;20217;-70
2023/08/24 12:51:59;;;;;;;3.40;2.45;;;;;;;;;;5002149;28;20220;-69
2023/08/24 12:54:26;;;;;;;2.58;2.30;;;;;;;;;;5001757;28;20209;-70
2023/08/24 12:56:53;;;;;;;3.70;2.50;;;;;;;;;;5001718;28;20434;-69
2023/08/24 12:59:20;;;;;;;3.92;2.67;;;;;;;;;;5001479;28;20213;-69
2023/08/24 13:01:48;;;;;;;2.65;2.55;;;;;;;;;;5005345;28;20259;-70
2023/08/24 13:04:15;;;;;;;3.58;2.50;;;;;;;;;;5003774;28;20208;-70
2023/08/24 13:06:42;;;;;;;2.83;2.70;;;;;;;;;;5004872;28;20647;-70
2023/08/24 13:09:11;;;;;;;2.35;2.25;;;;;;;;;;5004478;28;20217;-70
2023/08/24 13:11:38;;;;;;;2.55;2.45;;;;;;;;;;5003180;28;20270;-70
2023/08/24 13:14:05;;;;;;;3.08;2.60;;;;;;;;;;5004801;28;20662;-69
2023/08/24 13:16:32;;;;;;;2.70;2.50;;;;;;;;;;5003518;28;20225;-69
2023/08/24 13:18:59;;;;;;;2.72;2.63;;;;;;;;;;5004760;28;20212;-69
2023/08/24 13:21:27;;;;;;;2.67;2.60;;;;;;;;;;5004778;28;20209;-70
2023/08/24 13:23:54;;;;;;;2.55;2.40;;;;;;;;;;5005157;28;20237;-70
2023/08/24 13:26:24;;;;;;;3.08;2.80;;;;;;;;;;5004775;28;20628;-71
2023/08/24 13:28:51;;;;;;;2.65;2.50;;;;;;;;;;5003000;28;20247;-70
2023/08/24 13:31:18;;;;;;;3.05;2.85;;;;;;;;;;5002815;28;20213;-69
2023/08/24 13:33:46;;;;;;;2.85;2.65;;;;;;;;;;4999491;28;20209;-70
2023/08/24 13:36:13;;;;;;;2.30;2.30;;;;;;;;;;4999880;28;20263;-70
2023/08/24 13:38:40;;;;;;;31.95;6.32;;;;;;;;;;4999428;28;20600;-70
2023/08/24 13:41:07;;;;;;;6.20;2.88;;;;;;;;;;4999192;28;20209;-69
2023/08/24 13:43:35;;;;;;;16.92;3.53;;;;;;;;;;5000771;28;20217;-69
2023/08/24 13:46:02;;;;;;;11.98;3.35;;;;;;;;;;5004548;28;20307;-70
2023/08/24 13:48:33;;;;;;;7.15;2.60;;;;;;;;;;5003119;28;20229;-70
2023/08/24 13:51:00;;;;;;;11.20;4.13;;;;;;;;;;5005059;28;20209;-60
2023/08/24 13:53:27;;;;;;;7.78;3.22;;;;;;;;;;5004513;28;20213;-67
2023/08/24 13:55:54;;;;;;;12.38;3.55;;;;;;;;;;5004362;28;20220;-64
2023/08/24 13:58:21;;;;;;;8.15;2.80;;;;;;;;;;5004143;28;20640;-65
2023/08/24 14:00:56;;;;;;;2.78;2.65;;;;;;;;;;4999472;28;20668;-66
2023/08/24 14:03:23;;;;;;;8.07;3.13;;;;;;;;;;4999514;28;20208;-66
2023/08/24 14:05:51;;;;;;;2.70;2.60;;;;;;;;;;4997920;28;20209;-66
2023/08/24 14:08:18;;;;;;;2.35;2.20;;;;;;;;;;4999022;28;20805;-67
2023/08/24 14:10:47;;;;;;;2.70;2.50;;;;;;;;;;4999064;28;20216;-66
2023/08/24 14:13:14;;;;;;;6.72;2.83;;;;;;;;;;5003953;28;20235;-67
2023/08/24 14:15:41;;;;;;;3.50;2.60;;;;;;;;;;5010461;28;20208;-68
2023/08/24 14:18:11;;;;;;;3.03;2.83;;;;;;;;;;5017276;28;20282;-67
2023/08/24 14:20:38;;;;;;;2.65;2.55;;;;;;;;;;5005984;28;20814;-67
2023/08/24 14:23:05;;;;;;;2.53;2.42;;;;;;;;;;4997414;28;20216;-67
2023/08/24 14:25:32;;;;;;;7.40;2.70;;;;;;;;;;4997828;28;20217;-67
2023/08/24 14:27:59;;;;;;;3.83;2.70;;;;;;;;;;5003086;28;20237;-67
2023/08/24 14:30:26;;;;;;;3.75;2.60;;;;;;;;;;5002769;28;20212;-67
2023/08/24 14:32:53;;;;;;;4.15;2.50;;;;;;;;;;5002569;28;20224;-67
2023/08/24 14:35:22;;;;;;;2.60;2.40;;;;;;;;;;4999289;28;20730;-67
2023/08/24 14:37:49;;;;;;;2.75;2.60;;;;;;;;;;4997342;28;20690;-66
2023/08/24 14:40:18;;;;;;;2.55;2.38;;;;;;;;;;4999956;28;20213;-67
2023/08/24 14:42:45;;;;;;;3.97;2.70;;;;;;;;;;5003023;28;20219;-67
2023/08/24 14:45:12;;;;;;;3.80;2.85;;;;;;;;;;5001343;28;20213;-67
2023/08/24 14:47:39;;;;;;;3.03;2.92;;;;;;;;;;5001292;28;20241;-67